sensor_id;sensor_type;location;lat;lon;timestamp;pressure;altitude;pressure_sealevel;temperature;humidity
50977;BME280;36992;48.200;12.418;2022-11-20T00:00:29;96141.41;;;9.99;57.66
50977;BME280;36992;48.200;12.418;2022-11-20T00:02:56;96136.31;;;9.98;57.76
50977;BME280;36992;48.200;12.418;2022-11-20T00:05:22;96131.22;;;9.96;57.73
50977;BME280;36992;48.200;12.418;2022-11-20T00:07:49;96130.44;;;9.96;57.68
50977;BME280;36992;48.200;12.418;2022-11-20T00:10:16;96132.34;;;9.95;57.50
50977;BME280;36992;48.200;12.418;2022-11-20T00:12:43;96145.00;;;9.95;57.65
50977;BME280;36992;48.200;12.418;2022-11-20T00:15:11;96137.41;;;9.97;57.95
50977;BME280;36992;48.200;12.418;2022-11-20T00:17:37;96140.69;;;9.94;57.77
50977;BME280;36992;48.200;12.418;2022-11-20T00:20:05;96138.00;;;9.94;57.63
50977;BME280;36992;48.200;12.418;2022-11-20T00:22:31;96140.22;;;9.92;57.65
50977;BME280;36992;48.200;12.418;2022-11-20T00:24:58;96139.41;;;9.91;57.93
50977;BME280;36992;48.200;12.418;2022-11-20T00:27:24;96144.00;;;9.91;57.64
50977;BME280;36992;48.200;12.418;2022-11-20T00:29:51;96141.59;;;9.89;57.75
50977;BME280;36992;48.200;12.418;2022-11-20T00:32:19;96149.38;;;9.91;57.59
50977;BME280;36992;48.200;12.418;2022-11-20T00:34:45;96140.84;;;9.89;57.81
50977;BME280;36992;48.200;12.418;2022-11-20T00:37:12;96148.38;;;9.87;57.62
50977;BME280;36992;48.200;12.418;2022-11-20T00:39:38;96157.56;;;9.85;57.57
50977;BME280;36992;48.200;12.418;2022-11-20T00:42:05;96146.31;;;9.83;57.81
50977;BME280;36992;48.200;12.418;2022-11-20T00:44:31;96151.69;;;9.83;57.59
50977;BME280;36992;48.200;12.418;2022-11-20T00:46:57;96157.38;;;9.82;57.58
50977;BME280;36992;48.200;12.418;2022-11-20T00:49:25;96154.38;;;9.83;57.78
50977;BME280;36992;48.200;12.418;2022-11-20T00:51:52;96157.66;;;9.80;57.89
50977;BME280;36992;48.200;12.418;2022-11-20T00:54:19;96160.34;;;9.80;57.62
50977;BME280;36992;48.200;12.418;2022-11-20T00:56:45;96162.56;;;9.78;57.47
50977;BME280;36992;48.200;12.418;2022-11-20T00:59:12;96160.97;;;9.77;57.77
50977;BME280;36992;48.200;12.418;2022-11-20T01:01:38;96163.94;;;9.76;57.73
50977;BME280;36992;48.200;12.418;2022-11-20T01:04:05;96161.56;;;9.74;57.72
50977;BME280;36992;48.200;12.418;2022-11-20T01:06:34;96162.38;;;9.75;57.53
50977;BME280;36992;48.200;12.418;2022-11-20T01:09:05;96172.31;;;9.74;57.49
50977;BME280;36992;48.200;12.418;2022-11-20T01:11:33;96165.97;;;9.70;57.71
50977;BME280;36992;48.200;12.418;2022-11-20T01:14:02;96163.84;;;9.67;57.93
50977;BME280;36992;48.200;12.418;2022-11-20T01:16:31;96169.72;;;9.69;57.79
50977;BME280;36992;48.200;12.418;2022-11-20T01:18:59;96175.72;;;9.66;57.63
50977;BME280;36992;48.200;12.418;2022-11-20T01:21:28;96178.41;;;9.66;57.76
50977;BME280;36992;48.200;12.418;2022-11-20T01:23:57;96173.31;;;9.64;57.76
50977;BME280;36992;48.200;12.418;2022-11-20T01:26:26;96180.59;;;9.64;57.84
50977;BME280;36992;48.200;12.418;2022-11-20T01:28:54;96180.88;;;9.62;57.79
50977;BME280;36992;48.200;12.418;2022-11-20T01:31:23;96179.31;;;9.61;57.68
50977;BME280;36992;48.200;12.418;2022-11-20T01:33:52;96179.59;;;9.60;57.78
50977;BME280;36992;48.200;12.418;2022-11-20T01:36:20;96178.50;;;9.61;57.83
50977;BME280;36992;48.200;12.418;2022-11-20T01:38:50;96176.91;;;9.60;58.13
50977;BME280;36992;48.200;12.418;2022-11-20T01:41:19;96179.88;;;9.58;57.68
50977;BME280;36992;48.200;12.418;2022-11-20T01:43:59;96178.28;;;9.57;57.65
50977;BME280;36992;48.200;12.418;2022-11-20T01:46:26;96177.00;;;9.54;57.68
50977;BME280;36992;48.200;12.418;2022-11-20T01:48:57;96178.28;;;9.57;57.71
50977;BME280;36992;48.200;12.418;2022-11-20T01:51:28;96183.97;;;9.55;57.72
50977;BME280;36992;48.200;12.418;2022-11-20T01:53:58;96179.19;;;9.52;57.79
50977;BME280;36992;48.200;12.418;2022-11-20T01:56:28;96181.38;;;9.50;57.89
50977;BME280;36992;48.200;12.418;2022-11-20T01:58:59;96184.06;;;9.50;58.16
50977;BME280;36992;48.200;12.418;2022-11-20T02:01:28;96183.84;;;9.47;58.04
50977;BME280;36992;48.200;12.418;2022-11-20T02:03:54;96190.63;;;9.44;57.58
50977;BME280;36992;48.200;12.418;2022-11-20T02:06:24;96189.22;;;9.47;58.09
50977;BME280;36992;48.200;12.418;2022-11-20T02:08:52;96189.03;;;9.43;58.09
50977;BME280;36992;48.200;12.418;2022-11-20T02:11:19;96180.19;;;9.42;58.36
50977;BME280;36992;48.200;12.418;2022-11-20T02:13:47;96183.66;;;9.43;58.03
50977;BME280;36992;48.200;12.418;2022-11-20T02:16:16;96175.09;;;9.41;58.33
50977;BME280;36992;48.200;12.418;2022-11-20T02:18:46;96177.31;;;9.39;58.61
50977;BME280;36992;48.200;12.418;2022-11-20T02:21:23;96184.47;;;9.43;58.18
50977;BME280;36992;48.200;12.418;2022-11-20T02:24:09;96183.66;;;9.43;57.89
50977;BME280;36992;48.200;12.418;2022-11-20T02:26:42;96183.94;;;9.41;58.69
50977;BME280;36992;48.200;12.418;2022-11-20T02:29:10;96177.88;;;9.36;58.80
50977;BME280;36992;48.200;12.418;2022-11-20T02:31:40;96186.97;;;9.40;58.58
50977;BME280;36992;48.200;12.418;2022-11-20T02:34:08;96176.28;;;9.35;58.69
50977;BME280;36992;48.200;12.418;2022-11-20T02:36:36;96184.06;;;9.36;58.59
50977;BME280;36992;48.200;12.418;2022-11-20T02:39:05;96194.00;;;9.36;58.25
50977;BME280;36992;48.200;12.418;2022-11-20T02:41:35;96190.75;;;9.39;58.29
50977;BME280;36992;48.200;12.418;2022-11-20T02:44:03;96190.22;;;9.37;58.51
50977;BME280;36992;48.200;12.418;2022-11-20T02:46:31;96182.16;;;9.37;58.49
50977;BME280;36992;48.200;12.418;2022-11-20T02:48:58;96175.19;;;9.36;58.69
50977;BME280;36992;48.200;12.418;2022-11-20T02:51:24;96185.94;;;9.36;58.50
50977;BME280;36992;48.200;12.418;2022-11-20T02:53:51;96184.06;;;9.36;58.49
50977;BME280;36992;48.200;12.418;2022-11-20T02:56:17;96185.13;;;9.35;58.59
50977;BME280;36992;48.200;12.418;2022-11-20T02:58:45;96179.47;;;9.37;58.57
50977;BME280;36992;48.200;12.418;2022-11-20T03:01:12;96187.03;;;9.35;58.79
50977;BME280;36992;48.200;12.418;2022-11-20T03:03:39;96184.66;;;9.33;58.50
50977;BME280;36992;48.200;12.418;2022-11-20T03:06:06;96183.06;;;9.32;58.58
50977;BME280;36992;48.200;12.418;2022-11-20T03:08:32;96178.78;;;9.31;58.51
50977;BME280;36992;48.200;12.418;2022-11-20T03:11:02;96175.81;;;9.33;58.45
50977;BME280;36992;48.200;12.418;2022-11-20T03:13:29;96181.75;;;9.29;58.65
50977;BME280;36992;48.200;12.418;2022-11-20T03:15:56;96179.56;;;9.31;58.68
50977;BME280;36992;48.200;12.418;2022-11-20T03:18:23;96173.69;;;9.29;58.56
50977;BME280;36992;48.200;12.418;2022-11-20T03:20:49;96184.44;;;9.29;58.39
50977;BME280;36992;48.200;12.418;2022-11-20T03:23:16;96179.06;;;9.29;58.52
50977;BME280;36992;48.200;12.418;2022-11-20T03:25:42;96178.28;;;9.29;58.57
50977;BME280;36992;48.200;12.418;2022-11-20T03:28:09;96180.66;;;9.30;58.81
50977;BME280;36992;48.200;12.418;2022-11-20T03:30:36;96186.03;;;9.30;58.57
50977;BME280;36992;48.200;12.418;2022-11-20T03:33:04;96187.63;;;9.31;58.08
50977;BME280;36992;48.200;12.418;2022-11-20T03:35:30;96180.66;;;9.30;58.33
50977;BME280;36992;48.200;12.418;2022-11-20T03:37:57;96179.88;;;9.30;58.65
50977;BME280;36992;48.200;12.418;2022-11-20T03:40:24;96179.06;;;9.29;58.80
50977;BME280;36992;48.200;12.418;2022-11-20T03:42:50;96177.97;;;9.30;58.66
50977;BME280;36992;48.200;12.418;2022-11-20T03:45:18;96181.75;;;9.29;58.57
50977;BME280;36992;48.200;12.418;2022-11-20T03:47:44;96184.94;;;9.31;58.54
50977;BME280;36992;48.200;12.418;2022-11-20T03:50:13;96178.50;;;9.33;58.51
50977;BME280;36992;48.200;12.418;2022-11-20T03:52:40;96182.25;;;9.31;58.79
50977;BME280;36992;48.200;12.418;2022-11-20T03:55:07;96181.47;;;9.31;58.53
50977;BME280;36992;48.200;12.418;2022-11-20T03:57:33;96186.84;;;9.31;58.42
50977;BME280;36992;48.200;12.418;2022-11-20T04:00:00;96183.06;;;9.32;58.72
50977;BME280;36992;48.200;12.418;2022-11-20T04:02:26;96189.25;;;9.33;58.42
50977;BME280;36992;48.200;12.418;2022-11-20T04:04:53;96186.56;;;9.33;58.45
50977;BME280;36992;48.200;12.418;2022-11-20T04:07:21;96187.81;;;9.35;58.18
50977;BME280;36992;48.200;12.418;2022-11-20T04:09:47;96191.41;;;9.30;58.69
50977;BME280;36992;48.200;12.418;2022-11-20T04:12:14;96184.94;;;9.31;58.57
50977;BME280;36992;48.200;12.418;2022-11-20T04:14:41;96187.63;;;9.31;58.30
50977;BME280;36992;48.200;12.418;2022-11-20T04:17:07;96186.84;;;9.31;58.42
50977;BME280;36992;48.200;12.418;2022-11-20T04:19:34;96187.41;;;9.28;58.00
50977;BME280;36992;48.200;12.418;2022-11-20T04:22:00;96188.22;;;9.28;58.38
50977;BME280;36992;48.200;12.418;2022-11-20T04:24:28;96194.41;;;9.29;58.46
50977;BME280;36992;48.200;12.418;2022-11-20T04:26:55;96196.28;;;9.28;58.50
50977;BME280;36992;48.200;12.418;2022-11-20T04:29:21;96193.13;;;9.26;58.18
50977;BME280;36992;48.200;12.418;2022-11-20T04:31:48;96196.59;;;9.27;58.50
50977;BME280;36992;48.200;12.418;2022-11-20T04:34:15;96194.69;;;9.27;58.51
50977;BME280;36992;48.200;12.418;2022-11-20T04:36:41;96197.38;;;9.27;58.52
50977;BME280;36992;48.200;12.418;2022-11-20T04:39:12;96193.81;;;9.32;58.35
50977;BME280;36992;48.200;12.418;2022-11-20T04:41:41;96194.09;;;9.30;58.51
50977;BME280;36992;48.200;12.418;2022-11-20T04:44:08;96189.31;;;9.27;58.30
50977;BME280;36992;48.200;12.418;2022-11-20T04:46:36;96191.41;;;9.30;58.29
50977;BME280;36992;48.200;12.418;2022-11-20T04:49:04;96195.19;;;9.29;58.30
50977;BME280;36992;48.200;12.418;2022-11-20T04:51:31;96200.56;;;9.29;58.46
50977;BME280;36992;48.200;12.418;2022-11-20T04:53:58;96186.63;;;9.27;58.56
50977;BME280;36992;48.200;12.418;2022-11-20T04:56:24;96193.81;;;9.32;58.44
50977;BME280;36992;48.200;12.418;2022-11-20T04:58:52;96186.84;;;9.31;58.01
50977;BME280;36992;48.200;12.418;2022-11-20T05:01:20;96189.25;;;9.33;58.10
50977;BME280;36992;48.200;12.418;2022-11-20T05:03:48;96188.44;;;9.32;58.36
50977;BME280;36992;48.200;12.418;2022-11-20T05:06:17;96186.03;;;9.30;58.54
50977;BME280;36992;48.200;12.418;2022-11-20T05:08:43;96191.41;;;9.30;58.36
50977;BME280;36992;48.200;12.418;2022-11-20T05:11:12;96190.03;;;9.33;58.31
50977;BME280;36992;48.200;12.418;2022-11-20T05:13:39;96194.63;;;9.33;58.45
50977;BME280;36992;48.200;12.418;2022-11-20T05:16:09;96198.28;;;9.37;58.29
50977;BME280;36992;48.200;12.418;2022-11-20T05:18:37;96192.41;;;9.35;58.08
50977;BME280;36992;48.200;12.418;2022-11-20T05:21:04;96196.69;;;9.36;58.11
50977;BME280;36992;48.200;12.418;2022-11-20T05:23:32;96199.38;;;9.36;58.08
50977;BME280;36992;48.200;12.418;2022-11-20T05:25:59;96198.28;;;9.37;58.04
50977;BME280;36992;48.200;12.418;2022-11-20T05:28:27;96201.78;;;9.37;57.81
50977;BME280;36992;48.200;12.418;2022-11-20T05:30:54;96195.03;;;9.40;57.91
50977;BME280;36992;48.200;12.418;2022-11-20T05:33:23;96195.50;;;9.42;57.79
50977;BME280;36992;48.200;12.418;2022-11-20T05:35:52;96191.22;;;9.41;57.64
50977;BME280;36992;48.200;12.418;2022-11-20T05:38:19;96195.81;;;9.40;57.66
50977;BME280;36992;48.200;12.418;2022-11-20T05:40:47;96197.72;;;9.40;57.29
50977;BME280;36992;48.200;12.418;2022-11-20T05:43:14;96193.63;;;9.42;57.54
50977;BME280;36992;48.200;12.418;2022-11-20T05:45:41;96203.56;;;9.42;57.04
50977;BME280;36992;48.200;12.418;2022-11-20T05:48:07;96197.72;;;9.40;57.07
50977;BME280;36992;48.200;12.418;2022-11-20T05:50:36;96202.47;;;9.43;56.92
50977;BME280;36992;48.200;12.418;2022-11-20T05:53:02;96192.91;;;9.37;56.71
50977;BME280;36992;48.200;12.418;2022-11-20T05:55:29;96200.19;;;9.36;56.90
50977;BME280;36992;48.200;12.418;2022-11-20T05:57:56;96205.56;;;9.36;56.74
50977;BME280;36992;48.200;12.418;2022-11-20T06:00:23;96212.00;;;9.35;56.95
50977;BME280;36992;48.200;12.418;2022-11-20T06:02:50;96206.63;;;9.35;57.11
50977;BME280;36992;48.200;12.418;2022-11-20T06:05:16;96203.16;;;9.35;56.37
50977;BME280;36992;48.200;12.418;2022-11-20T06:07:44;96215.22;;;9.37;56.96
50977;BME280;36992;48.200;12.418;2022-11-20T06:10:11;96211.22;;;9.35;56.70
50977;BME280;36992;48.200;12.418;2022-11-20T06:12:38;96209.66;;;9.34;57.02
50977;BME280;36992;48.200;12.418;2022-11-20T06:15:05;96218.50;;;9.34;57.04
50977;BME280;36992;48.200;12.418;2022-11-20T06:17:32;96211.81;;;9.31;56.75
50977;BME280;36992;48.200;12.418;2022-11-20T06:19:58;96212.91;;;9.30;56.71
50977;BME280;36992;48.200;12.418;2022-11-20T06:22:25;96208.34;;;9.31;57.00
50977;BME280;36992;48.200;12.418;2022-11-20T06:24:53;96217.72;;;9.34;56.70
50977;BME280;36992;48.200;12.418;2022-11-20T06:27:20;96215.59;;;9.30;56.54
50977;BME280;36992;48.200;12.418;2022-11-20T06:29:46;96219.38;;;9.29;56.34
50977;BME280;36992;48.200;12.418;2022-11-20T06:32:13;96220.47;;;9.28;56.24
50977;BME280;36992;48.200;12.418;2022-11-20T06:34:39;96211.59;;;9.28;56.70
50977;BME280;36992;48.200;12.418;2022-11-20T06:37:06;96218.09;;;9.27;56.33
50977;BME280;36992;48.200;12.418;2022-11-20T06:39:33;96222.69;;;9.26;56.32
50977;BME280;36992;48.200;12.418;2022-11-20T06:42:01;96228.06;;;9.26;56.32
50977;BME280;36992;48.200;12.418;2022-11-20T06:44:27;96232.91;;;9.24;56.13
50977;BME280;36992;48.200;12.418;2022-11-20T06:46:54;96228.63;;;9.23;56.05
50977;BME280;36992;48.200;12.418;2022-11-20T06:49:20;96230.31;;;9.19;56.32
50977;BME280;36992;48.200;12.418;2022-11-20T06:51:47;96234.91;;;9.18;56.68
50977;BME280;36992;48.200;12.418;2022-11-20T06:54:13;96232.22;;;9.18;56.22
50977;BME280;36992;48.200;12.418;2022-11-20T06:56:40;96232.50;;;9.17;56.01
50977;BME280;36992;48.200;12.418;2022-11-20T06:59:08;96233.31;;;9.17;55.81
50977;BME280;36992;48.200;12.418;2022-11-20T07:01:35;96248.13;;;9.15;56.19
50977;BME280;36992;48.200;12.418;2022-11-20T07:04:01;96250.28;;;9.13;56.02
50977;BME280;36992;48.200;12.418;2022-11-20T07:06:28;96244.91;;;9.13;56.62
50977;BME280;36992;48.200;12.418;2022-11-20T07:08:55;96247.09;;;9.11;56.59
50977;BME280;36992;48.200;12.418;2022-11-20T07:11:22;96244.41;;;9.11;56.18
50977;BME280;36992;48.200;12.418;2022-11-20T07:13:49;96249.31;;;9.09;55.90
50977;BME280;36992;48.200;12.418;2022-11-20T07:16:17;96247.09;;;9.11;56.15
50977;BME280;36992;48.200;12.418;2022-11-20T07:18:43;96243.13;;;9.08;56.62
50977;BME280;36992;48.200;12.418;2022-11-20T07:21:10;96253.38;;;9.06;56.12
50977;BME280;36992;48.200;12.418;2022-11-20T07:23:37;96246.09;;;9.07;56.50
50977;BME280;36992;48.200;12.418;2022-11-20T07:26:04;96255.25;;;9.06;56.53
50977;BME280;36992;48.200;12.418;2022-11-20T07:28:31;96249.09;;;9.05;56.31
50977;BME280;36992;48.200;12.418;2022-11-20T07:30:58;96254.47;;;9.05;56.87
50977;BME280;36992;48.200;12.418;2022-11-20T07:33:26;96257.94;;;9.06;55.92
50977;BME280;36992;48.200;12.418;2022-11-20T07:35:53;96260.63;;;9.06;56.53
50977;BME280;36992;48.200;12.418;2022-11-20T07:38:19;96255.84;;;9.02;55.97
50977;BME280;36992;48.200;12.418;2022-11-20T07:40:46;96251.56;;;9.01;56.18
50977;BME280;36992;48.200;12.418;2022-11-20T07:43:13;96253.16;;;9.02;56.39
50977;BME280;36992;48.200;12.418;2022-11-20T07:45:40;96259.63;;;9.01;56.21
50977;BME280;36992;48.200;12.418;2022-11-20T07:48:06;96261.50;;;9.01;56.08
50977;BME280;36992;48.200;12.418;2022-11-20T07:50:35;96252.06;;;9.03;56.53
50977;BME280;36992;48.200;12.418;2022-11-20T07:53:02;96259.91;;;9.00;56.36
50977;BME280;36992;48.200;12.418;2022-11-20T07:55:29;96260.19;;;8.98;56.34
50977;BME280;36992;48.200;12.418;2022-11-20T07:57:56;96267.47;;;8.98;56.51
50977;BME280;36992;48.200;12.418;2022-11-20T08:00:22;96270.16;;;8.98;56.11
50977;BME280;36992;48.200;12.418;2022-11-20T08:02:49;96274.72;;;8.97;56.20
50977;BME280;36992;48.200;12.418;2022-11-20T08:05:16;96265.84;;;8.97;55.82
50977;BME280;36992;48.200;12.418;2022-11-20T08:07:44;96269.06;;;8.99;55.85
50977;BME280;36992;48.200;12.418;2022-11-20T08:10:13;96272.31;;;8.96;56.02
50977;BME280;36992;48.200;12.418;2022-11-20T08:12:43;96273.63;;;8.98;56.29
50977;BME280;36992;48.200;12.418;2022-11-20T08:15:28;96266.16;;;8.95;55.95
50977;BME280;36992;48.200;12.418;2022-11-20T08:17:59;96272.53;;;8.99;56.81
50977;BME280;36992;48.200;12.418;2022-11-20T08:20:25;96268.53;;;8.97;56.70
50977;BME280;36992;48.200;12.418;2022-11-20T08:22:57;96257.44;;;9.03;56.57
50977;BME280;36992;48.200;12.418;2022-11-20T08:25:24;96263.91;;;9.02;56.38
50977;BME280;36992;48.200;12.418;2022-11-20T08:27:50;96263.84;;;9.08;56.32
50977;BME280;36992;48.200;12.418;2022-11-20T08:30:17;96256.25;;;9.10;56.00
50977;BME280;36992;48.200;12.418;2022-11-20T08:32:43;96260.25;;;9.12;55.28
50977;BME280;36992;48.200;12.418;2022-11-20T08:35:10;96269.63;;;9.15;55.71
50977;BME280;36992;48.200;12.418;2022-11-20T08:37:36;96264.25;;;9.15;55.10
50977;BME280;36992;48.200;12.418;2022-11-20T08:40:09;96263.06;;;9.21;55.01
50977;BME280;36992;48.200;12.418;2022-11-20T08:42:36;96263.66;;;9.18;54.40
50977;BME280;36992;48.200;12.418;2022-11-20T08:45:03;96269.53;;;9.20;54.65
50977;BME280;36992;48.200;12.418;2022-11-20T08:47:30;96268.16;;;9.23;55.40
50977;BME280;36992;48.200;12.418;2022-11-20T08:49:56;96266.25;;;9.23;54.97
50977;BME280;36992;48.200;12.418;2022-11-20T08:52:23;96269.44;;;9.25;54.74
50977;BME280;36992;48.200;12.418;2022-11-20T08:54:50;96274.81;;;9.25;54.71
50977;BME280;36992;48.200;12.418;2022-11-20T08:57:18;96276.44;;;9.26;54.47
50977;BME280;36992;48.200;12.418;2022-11-20T08:59:45;96275.81;;;9.29;54.58
50977;BME280;36992;48.200;12.418;2022-11-20T09:02:11;96275.81;;;9.29;53.85
50977;BME280;36992;48.200;12.418;2022-11-20T09:04:38;96275.25;;;9.33;55.00
50977;BME280;36992;48.200;12.418;2022-11-20T09:07:04;96267.97;;;9.33;53.76
50977;BME280;36992;48.200;12.418;2022-11-20T09:09:31;96265.50;;;9.37;53.60
50977;BME280;36992;48.200;12.418;2022-11-20T09:11:58;96270.28;;;9.40;53.84
50977;BME280;36992;48.200;12.418;2022-11-20T09:14:25;96269.69;;;9.43;54.60
50977;BME280;36992;48.200;12.418;2022-11-20T09:16:54;96271.28;;;9.44;53.45
50977;BME280;36992;48.200;12.418;2022-11-20T09:19:20;96267.53;;;9.45;52.39
50977;BME280;36992;48.200;12.418;2022-11-20T09:21:47;96270.69;;;9.47;53.61
50977;BME280;36992;48.200;12.418;2022-11-20T09:24:14;96278.47;;;9.49;52.64
50977;BME280;36992;48.200;12.418;2022-11-20T09:26:40;96264.22;;;9.48;52.16
50977;BME280;36992;48.200;12.418;2022-11-20T09:29:07;96264.72;;;9.50;52.94
50977;BME280;36992;48.200;12.418;2022-11-20T09:31:35;96260.34;;;9.54;52.49
50977;BME280;36992;48.200;12.418;2022-11-20T09:34:02;96261.94;;;9.55;52.80
50977;BME280;36992;48.200;12.418;2022-11-20T09:36:28;96258.16;;;9.56;53.49
50977;BME280;36992;48.200;12.418;2022-11-20T09:38:55;96263.25;;;9.58;53.54
50977;BME280;36992;48.200;12.418;2022-11-20T09:41:36;96259.66;;;9.63;54.06
50977;BME280;36992;48.200;12.418;2022-11-20T09:44:23;96263.34;;;9.67;53.81
50977;BME280;36992;48.200;12.418;2022-11-20T09:47:00;96255.78;;;9.69;53.69
50977;BME280;36992;48.200;12.418;2022-11-20T09:49:34;96268.16;;;9.70;53.44
50977;BME280;36992;48.200;12.418;2022-11-20T09:52:14;96260.59;;;9.72;53.53
50977;BME280;36992;48.200;12.418;2022-11-20T09:54:42;96254.72;;;9.70;53.17
50977;BME280;36992;48.200;12.418;2022-11-20T09:57:11;96268.38;;;9.74;53.08
50977;BME280;36992;48.200;12.418;2022-11-20T09:59:41;96249.34;;;9.70;52.22
50977;BME280;36992;48.200;12.418;2022-11-20T10:02:16;96251.91;;;9.75;52.46
50977;BME280;36992;48.200;12.418;2022-11-20T10:04:50;96249.22;;;9.75;52.60
50977;BME280;36992;48.200;12.418;2022-11-20T10:07:21;96247.34;;;9.76;51.56
50977;BME280;36992;48.200;12.418;2022-11-20T10:09:51;96243.06;;;9.75;51.92
50977;BME280;36992;48.200;12.418;2022-11-20T10:12:24;96237.06;;;9.78;50.65
50977;BME280;36992;48.200;12.418;2022-11-20T10:15:07;96234.38;;;9.78;51.46
50977;BME280;36992;48.200;12.418;2022-11-20T10:17:55;96231.88;;;9.81;52.02
50977;BME280;36992;48.200;12.418;2022-11-20T10:20:30;96231.59;;;9.83;52.26
50977;BME280;36992;48.200;12.418;2022-11-20T10:23:20;96234.47;;;9.87;52.20
50977;BME280;36992;48.200;12.418;2022-11-20T10:25:55;96225.31;;;9.88;52.50
50977;BME280;36992;48.200;12.418;2022-11-20T10:28:34;96230.09;;;9.91;51.55
50977;BME280;36992;48.200;12.418;2022-11-20T10:31:07;96225.81;;;9.90;50.67
50977;BME280;36992;48.200;12.418;2022-11-20T10:33:39;96234.56;;;9.95;51.81
50977;BME280;36992;48.200;12.418;2022-11-20T10:36:14;96226.50;;;9.95;50.93
50977;BME280;36992;48.200;12.418;2022-11-20T10:38:45;96222.72;;;9.96;51.02
50977;BME280;36992;48.200;12.418;2022-11-20T10:41:20;96221.31;;;9.99;51.17
50977;BME280;36992;48.200;12.418;2022-11-20T10:43:56;96216.75;;;9.99;50.60
50977;BME280;36992;48.200;12.418;2022-11-20T10:46:25;96215.66;;;10.01;50.66
50977;BME280;36992;48.200;12.418;2022-11-20T10:48:58;96211.56;;;10.03;50.33
50977;BME280;36992;48.200;12.418;2022-11-20T10:51:31;96213.34;;;10.08;51.33
50977;BME280;36992;48.200;12.418;2022-11-20T10:54:11;96210.34;;;10.09;51.45
50977;BME280;36992;48.200;12.418;2022-11-20T10:56:41;96211.47;;;10.08;51.26
50977;BME280;36992;48.200;12.418;2022-11-20T10:59:33;96207.56;;;10.15;50.88
50977;BME280;36992;48.200;12.418;2022-11-20T11:02:12;96203.88;;;10.10;48.82
50977;BME280;36992;48.200;12.418;2022-11-20T11:04:44;96205.97;;;10.14;49.29
50977;BME280;36992;48.200;12.418;2022-11-20T11:07:15;96203.78;;;10.16;50.23
50977;BME280;36992;48.200;12.418;2022-11-20T11:09:46;96205.34;;;10.17;49.74
50977;BME280;36992;48.200;12.418;2022-11-20T11:12:13;96206.16;;;10.17;49.23
50977;BME280;36992;48.200;12.418;2022-11-20T11:14:48;96195.41;;;10.17;48.92
50977;BME280;36992;48.200;12.418;2022-11-20T11:17:23;96198.75;;;10.23;50.39
50977;BME280;36992;48.200;12.418;2022-11-20T11:20:00;96203.34;;;10.22;50.27
50977;BME280;36992;48.200;12.418;2022-11-20T11:22:27;96200.44;;;10.33;51.00
50977;BME280;36992;48.200;12.418;2022-11-20T11:24:54;96200.97;;;10.21;48.61
50977;BME280;36992;48.200;12.418;2022-11-20T11:27:21;96190.22;;;10.21;49.06
50977;BME280;36992;48.200;12.418;2022-11-20T11:29:47;96180.22;;;10.21;49.13
50977;BME280;36992;48.200;12.418;2022-11-20T11:32:17;96185.78;;;10.25;48.75
50977;BME280;36992;48.200;12.418;2022-11-20T11:34:44;96185.31;;;10.23;48.18
50977;BME280;36992;48.200;12.418;2022-11-20T11:37:16;96183.00;;;10.30;49.27
50977;BME280;36992;48.200;12.418;2022-11-20T11:39:44;96183.63;;;10.27;48.02
50977;BME280;36992;48.200;12.418;2022-11-20T11:42:16;96187.28;;;10.31;49.06
50977;BME280;36992;48.200;12.418;2022-11-20T11:44:44;96179.19;;;10.31;48.94
50977;BME280;36992;48.200;12.418;2022-11-20T11:47:31;96180.19;;;10.35;48.86
50977;BME280;36992;48.200;12.418;2022-11-20T11:50:02;96175.28;;;10.37;48.67
50977;BME280;36992;48.200;12.418;2022-11-20T11:52:41;96183.56;;;10.41;48.60
50977;BME280;36992;48.200;12.418;2022-11-20T11:55:14;96181.88;;;10.45;48.21
50977;BME280;36992;48.200;12.418;2022-11-20T11:57:46;96166.53;;;10.46;48.46
50977;BME280;36992;48.200;12.418;2022-11-20T12:00:17;96170.81;;;10.47;47.93
50977;BME280;36992;48.200;12.418;2022-11-20T12:02:56;96170.19;;;10.50;48.26
50977;BME280;36992;48.200;12.418;2022-11-20T12:05:29;96165.44;;;10.47;47.22
50977;BME280;36992;48.200;12.418;2022-11-20T12:08:02;96168.00;;;10.52;47.72
50977;BME280;36992;48.200;12.418;2022-11-20T12:10:39;96166.44;;;10.51;48.05
50977;BME280;36992;48.200;12.418;2022-11-20T12:13:11;96154.78;;;10.64;49.73
50977;BME280;36992;48.200;12.418;2022-11-20T12:15:44;96164.41;;;10.57;48.33
50977;BME280;36992;48.200;12.418;2022-11-20T12:18:15;96159.59;;;10.53;48.20
50977;BME280;36992;48.200;12.418;2022-11-20T12:20:52;96151.22;;;10.55;48.54
50977;BME280;36992;48.200;12.418;2022-11-20T12:23:28;96159.31;;;10.55;48.35
50977;BME280;36992;48.200;12.418;2022-11-20T12:26:04;96154.44;;;10.57;48.26
50977;BME280;36992;48.200;12.418;2022-11-20T12:28:36;96158.16;;;10.70;50.06
50977;BME280;36992;48.200;12.418;2022-11-20T12:31:29;96159.38;;;10.64;48.95
50977;BME280;36992;48.200;12.418;2022-11-20T12:34:13;96162.38;;;10.62;48.69
50977;BME280;36992;48.200;12.418;2022-11-20T12:36:49;96156.50;;;10.60;47.80
50977;BME280;36992;48.200;12.418;2022-11-20T12:39:33;96159.66;;;10.62;48.32
50977;BME280;36992;48.200;12.418;2022-11-20T12:42:14;96156.97;;;10.62;48.46
50977;BME280;36992;48.200;12.418;2022-11-20T12:45:10;96157.50;;;10.64;48.30
50977;BME280;36992;48.200;12.418;2022-11-20T12:47:53;96157.97;;;10.66;48.86
50977;BME280;36992;48.200;12.418;2022-11-20T12:50:34;96156.88;;;10.68;48.24
50977;BME280;36992;48.200;12.418;2022-11-20T12:53:07;96152.59;;;10.66;47.17
50977;BME280;36992;48.200;12.418;2022-11-20T12:55:48;96150.38;;;10.69;48.33
50977;BME280;36992;48.200;12.418;2022-11-20T12:58:22;96152.75;;;10.70;47.58
50977;BME280;36992;48.200;12.418;2022-11-20T13:00:56;96150.06;;;10.70;47.70
50977;BME280;36992;48.200;12.418;2022-11-20T13:03:48;96144.75;;;10.79;48.75
50977;BME280;36992;48.200;12.418;2022-11-20T13:06:18;96143.75;;;10.75;47.02
50977;BME280;36992;48.200;12.418;2022-11-20T13:08:49;96147.44;;;10.79;47.70